sensor_id;sensor_type;location;lat;lon;timestamp;P1;durP1;ratioP1;P2;durP2;ratioP2
11854;SDS011;5987;53.140;8.904;2023-05-07T00:02:14;18.17;;;13.20;;
11854;SDS011;5987;53.140;8.904;2023-05-07T00:05:19;20.30;;;13.57;;
11854;SDS011;5987;53.140;8.904;2023-05-07T00:08:23;18.60;;;14.17;;
11854;SDS011;5987;53.140;8.904;2023-05-07T00:11:27;17.17;;;13.47;;
11854;SDS011;5987;53.140;8.904;2023-05-07T00:14:30;18.77;;;13.10;;
11854;SDS011;5987;53.140;8.904;2023-05-07T00:17:34;18.67;;;13.17;;
11854;SDS011;5987;53.140;8.904;2023-05-07T00:20:39;19.37;;;13.63;;
11854;SDS011;5987;53.140;8.904;2023-05-07T00:23:42;16.43;;;13.00;;
11854;SDS011;5987;53.140;8.904;2023-05-07T00:26:46;18.93;;;13.53;;
11854;SDS011;5987;53.140;8.904;2023-05-07T00:29:49;17.07;;;12.90;;
11854;SDS011;5987;53.140;8.904;2023-05-07T00:32:53;18.30;;;14.03;;
11854;SDS011;5987;53.140;8.904;2023-05-07T00:35:58;21.80;;;14.67;;
11854;SDS011;5987;53.140;8.904;2023-05-07T00:39:03;22.40;;;14.87;;
11854;SDS011;5987;53.140;8.904;2023-05-07T00:42:06;19.43;;;14.30;;
11854;SDS011;5987;53.140;8.904;2023-05-07T00:45:10;18.37;;;13.33;;
11854;SDS011;5987;53.140;8.904;2023-05-07T00:48:14;19.53;;;13.33;;
11854;SDS011;5987;53.140;8.904;2023-05-07T00:51:20;20.20;;;14.00;;
11854;SDS011;5987;53.140;8.904;2023-05-07T00:54:24;19.23;;;13.10;;
11854;SDS011;5987;53.140;8.904;2023-05-07T00:57:28;19.43;;;14.30;;
11854;SDS011;5987;53.140;8.904;2023-05-07T01:00:32;20.00;;;14.30;;
11854;SDS011;5987;53.140;8.904;2023-05-07T01:03:35;18.63;;;12.87;;
11854;SDS011;5987;53.140;8.904;2023-05-07T01:06:41;18.13;;;13.37;;
11854;SDS011;5987;53.140;8.904;2023-05-07T01:09:45;20.83;;;13.67;;
11854;SDS011;5987;53.140;8.904;2023-05-07T01:12:49;17.77;;;13.57;;
11854;SDS011;5987;53.140;8.904;2023-05-07T01:15:54;15.33;;;12.57;;
11854;SDS011;5987;53.140;8.904;2023-05-07T01:18:57;18.43;;;12.93;;
11854;SDS011;5987;53.140;8.904;2023-05-07T01:22:03;19.60;;;13.87;;
11854;SDS011;5987;53.140;8.904;2023-05-07T01:25:13;17.33;;;13.03;;
11854;SDS011;5987;53.140;8.904;2023-05-07T01:28:18;17.67;;;13.03;;
11854;SDS011;5987;53.140;8.904;2023-05-07T01:31:22;18.30;;;13.60;;
11854;SDS011;5987;53.140;8.904;2023-05-07T01:34:28;18.50;;;12.83;;
11854;SDS011;5987;53.140;8.904;2023-05-07T01:37:37;17.27;;;12.57;;
11854;SDS011;5987;53.140;8.904;2023-05-07T01:40:43;18.07;;;12.30;;
11854;SDS011;5987;53.140;8.904;2023-05-07T01:43:48;17.37;;;11.90;;
11854;SDS011;5987;53.140;8.904;2023-05-07T01:46:53;18.87;;;13.43;;
11854;SDS011;5987;53.140;8.904;2023-05-07T01:49:57;16.17;;;11.90;;
11854;SDS011;5987;53.140;8.904;2023-05-07T01:53:01;19.57;;;11.87;;
11854;SDS011;5987;53.140;8.904;2023-05-07T01:56:07;17.00;;;13.07;;
11854;SDS011;5987;53.140;8.904;2023-05-07T01:59:10;18.93;;;11.83;;
11854;SDS011;5987;53.140;8.904;2023-05-07T02:02:15;16.87;;;12.47;;
11854;SDS011;5987;53.140;8.904;2023-05-07T02:05:18;18.63;;;12.70;;
11854;SDS011;5987;53.140;8.904;2023-05-07T02:08:22;18.00;;;12.10;;
11854;SDS011;5987;53.140;8.904;2023-05-07T02:11:27;19.57;;;13.93;;
11854;SDS011;5987;53.140;8.904;2023-05-07T02:14:31;19.77;;;13.70;;
11854;SDS011;5987;53.140;8.904;2023-05-07T02:17:34;17.70;;;12.37;;
11854;SDS011;5987;53.140;8.904;2023-05-07T02:20:38;15.33;;;12.03;;
11854;SDS011;5987;53.140;8.904;2023-05-07T02:23:42;17.33;;;12.90;;
11854;SDS011;5987;53.140;8.904;2023-05-07T02:26:47;19.13;;;12.83;;
11854;SDS011;5987;53.140;8.904;2023-05-07T02:29:51;14.87;;;11.63;;
11854;SDS011;5987;53.140;8.904;2023-05-07T02:32:54;18.63;;;11.90;;
11854;SDS011;5987;53.140;8.904;2023-05-07T02:36:04;19.23;;;13.50;;
11854;SDS011;5987;53.140;8.904;2023-05-07T02:39:09;19.97;;;12.87;;
11854;SDS011;5987;53.140;8.904;2023-05-07T02:42:16;18.43;;;12.03;;
11854;SDS011;5987;53.140;8.904;2023-05-07T02:45:19;18.73;;;12.20;;
11854;SDS011;5987;53.140;8.904;2023-05-07T02:48:23;17.97;;;12.43;;
11854;SDS011;5987;53.140;8.904;2023-05-07T02:51:27;19.63;;;12.73;;
11854;SDS011;5987;53.140;8.904;2023-05-07T02:54:30;17.30;;;12.83;;
11854;SDS011;5987;53.140;8.904;2023-05-07T02:57:35;17.30;;;12.53;;
11854;SDS011;5987;53.140;8.904;2023-05-07T03:00:39;17.43;;;12.10;;
11854;SDS011;5987;53.140;8.904;2023-05-07T03:03:42;18.40;;;12.23;;
11854;SDS011;5987;53.140;8.904;2023-05-07T03:06:46;18.57;;;11.80;;
11854;SDS011;5987;53.140;8.904;2023-05-07T03:09:50;17.13;;;11.83;;
11854;SDS011;5987;53.140;8.904;2023-05-07T03:12:56;17.40;;;11.87;;
11854;SDS011;5987;53.140;8.904;2023-05-07T03:16:00;18.20;;;13.03;;
11854;SDS011;5987;53.140;8.904;2023-05-07T03:19:03;16.27;;;11.50;;
11854;SDS011;5987;53.140;8.904;2023-05-07T03:22:07;15.23;;;11.83;;
11854;SDS011;5987;53.140;8.904;2023-05-07T03:25:12;16.33;;;12.03;;
11854;SDS011;5987;53.140;8.904;2023-05-07T03:28:17;20.00;;;12.13;;
11854;SDS011;5987;53.140;8.904;2023-05-07T03:31:21;19.27;;;11.27;;
11854;SDS011;5987;53.140;8.904;2023-05-07T03:34:25;15.10;;;11.83;;
11854;SDS011;5987;53.140;8.904;2023-05-07T03:37:28;17.60;;;12.10;;
11854;SDS011;5987;53.140;8.904;2023-05-07T03:40:32;16.70;;;11.30;;
11854;SDS011;5987;53.140;8.904;2023-05-07T03:43:37;15.70;;;11.17;;
11854;SDS011;5987;53.140;8.904;2023-05-07T03:46:41;18.47;;;12.10;;
11854;SDS011;5987;53.140;8.904;2023-05-07T03:49:45;18.40;;;11.77;;
11854;SDS011;5987;53.140;8.904;2023-05-07T03:52:49;17.63;;;11.60;;
11854;SDS011;5987;53.140;8.904;2023-05-07T03:55:53;17.23;;;11.73;;
11854;SDS011;5987;53.140;8.904;2023-05-07T03:58:58;17.23;;;10.80;;
11854;SDS011;5987;53.140;8.904;2023-05-07T04:02:02;16.00;;;11.63;;
11854;SDS011;5987;53.140;8.904;2023-05-07T04:05:06;17.37;;;11.33;;
11854;SDS011;5987;53.140;8.904;2023-05-07T04:08:11;16.00;;;11.07;;
11854;SDS011;5987;53.140;8.904;2023-05-07T04:11:14;23.47;;;12.57;;
11854;SDS011;5987;53.140;8.904;2023-05-07T04:14:19;16.90;;;11.07;;
11854;SDS011;5987;53.140;8.904;2023-05-07T04:17:23;17.93;;;11.53;;
11854;SDS011;5987;53.140;8.904;2023-05-07T04:20:26;15.73;;;11.37;;
11854;SDS011;5987;53.140;8.904;2023-05-07T04:23:30;15.73;;;11.83;;
11854;SDS011;5987;53.140;8.904;2023-05-07T04:26:34;14.97;;;10.83;;
11854;SDS011;5987;53.140;8.904;2023-05-07T04:29:39;15.63;;;11.93;;
11854;SDS011;5987;53.140;8.904;2023-05-07T04:32:43;14.10;;;10.63;;
11854;SDS011;5987;53.140;8.904;2023-05-07T04:35:47;15.60;;;11.40;;
11854;SDS011;5987;53.140;8.904;2023-05-07T04:38:50;14.77;;;10.60;;
11854;SDS011;5987;53.140;8.904;2023-05-07T04:41:54;17.53;;;11.97;;
11854;SDS011;5987;53.140;8.904;2023-05-07T04:44:59;14.87;;;11.60;;
11854;SDS011;5987;53.140;8.904;2023-05-07T04:48:03;15.33;;;10.33;;
11854;SDS011;5987;53.140;8.904;2023-05-07T04:51:08;15.70;;;10.73;;
11854;SDS011;5987;53.140;8.904;2023-05-07T04:54:11;17.53;;;11.80;;
11854;SDS011;5987;53.140;8.904;2023-05-07T04:57:15;14.93;;;10.90;;
11854;SDS011;5987;53.140;8.904;2023-05-07T05:00:20;14.83;;;10.60;;
11854;SDS011;5987;53.140;8.904;2023-05-07T05:03:24;16.20;;;11.53;;
11854;SDS011;5987;53.140;8.904;2023-05-07T05:06:29;16.23;;;10.77;;
11854;SDS011;5987;53.140;8.904;2023-05-07T05:09:32;15.90;;;11.27;;
11854;SDS011;5987;53.140;8.904;2023-05-07T05:12:36;14.67;;;11.20;;
11854;SDS011;5987;53.140;8.904;2023-05-07T05:15:41;16.10;;;11.03;;
11854;SDS011;5987;53.140;8.904;2023-05-07T05:18:44;14.30;;;10.23;;
11854;SDS011;5987;53.140;8.904;2023-05-07T05:21:48;19.23;;;10.67;;
11854;SDS011;5987;53.140;8.904;2023-05-07T05:24:51;12.67;;;10.07;;
11854;SDS011;5987;53.140;8.904;2023-05-07T05:27:55;12.53;;;9.40;;
11854;SDS011;5987;53.140;8.904;2023-05-07T05:30:59;13.13;;;10.07;;
11854;SDS011;5987;53.140;8.904;2023-05-07T05:34:03;12.07;;;9.27;;
11854;SDS011;5987;53.140;8.904;2023-05-07T05:37:07;10.77;;;9.30;;
11854;SDS011;5987;53.140;8.904;2023-05-07T05:40:11;12.30;;;9.63;;
11854;SDS011;5987;53.140;8.904;2023-05-07T05:43:15;10.03;;;8.50;;
11854;SDS011;5987;53.140;8.904;2023-05-07T05:46:20;11.40;;;8.80;;
11854;SDS011;5987;53.140;8.904;2023-05-07T05:49:23;11.50;;;8.80;;
11854;SDS011;5987;53.140;8.904;2023-05-07T05:52:27;11.70;;;8.03;;
11854;SDS011;5987;53.140;8.904;2023-05-07T05:55:30;11.93;;;8.50;;
11854;SDS011;5987;53.140;8.904;2023-05-07T05:58:34;8.00;;;7.20;;
11854;SDS011;5987;53.140;8.904;2023-05-07T06:01:39;8.73;;;6.70;;
11854;SDS011;5987;53.140;8.904;2023-05-07T06:04:43;8.67;;;7.03;;
11854;SDS011;5987;53.140;8.904;2023-05-07T06:07:47;9.30;;;6.97;;
11854;SDS011;5987;53.140;8.904;2023-05-07T06:10:50;8.83;;;7.20;;
11854;SDS011;5987;53.140;8.904;2023-05-07T06:13:54;7.07;;;6.00;;
11854;SDS011;5987;53.140;8.904;2023-05-07T06:16:59;9.30;;;7.00;;
11854;SDS011;5987;53.140;8.904;2023-05-07T06:20:03;7.53;;;5.97;;
11854;SDS011;5987;53.140;8.904;2023-05-07T06:23:09;8.87;;;7.33;;
11854;SDS011;5987;53.140;8.904;2023-05-07T06:26:12;8.30;;;6.20;;
11854;SDS011;5987;53.140;8.904;2023-05-07T06:29:16;8.03;;;6.07;;
11854;SDS011;5987;53.140;8.904;2023-05-07T06:32:21;7.33;;;6.47;;
11854;SDS011;5987;53.140;8.904;2023-05-07T06:35:24;10.87;;;6.53;;
11854;SDS011;5987;53.140;8.904;2023-05-07T06:38:28;8.10;;;6.83;;
11854;SDS011;5987;53.140;8.904;2023-05-07T06:41:31;8.40;;;7.07;;
11854;SDS011;5987;53.140;8.904;2023-05-07T06:44:35;7.80;;;6.60;;
11854;SDS011;5987;53.140;8.904;2023-05-07T06:47:40;7.40;;;6.60;;
11854;SDS011;5987;53.140;8.904;2023-05-07T06:50:44;8.03;;;6.50;;
11854;SDS011;5987;53.140;8.904;2023-05-07T06:53:47;6.47;;;5.77;;
11854;SDS011;5987;53.140;8.904;2023-05-07T06:56:51;6.20;;;5.60;;
11854;SDS011;5987;53.140;8.904;2023-05-07T06:59:55;6.87;;;6.17;;
11854;SDS011;5987;53.140;8.904;2023-05-07T07:03:00;7.33;;;5.90;;
11854;SDS011;5987;53.140;8.904;2023-05-07T07:06:04;7.50;;;6.17;;
11854;SDS011;5987;53.140;8.904;2023-05-07T07:09:09;7.40;;;6.10;;
11854;SDS011;5987;53.140;8.904;2023-05-07T07:12:13;6.40;;;5.23;;
11854;SDS011;5987;53.140;8.904;2023-05-07T07:15:16;10.07;;;6.30;;
11854;SDS011;5987;53.140;8.904;2023-05-07T07:18:25;7.23;;;6.30;;
11854;SDS011;5987;53.140;8.904;2023-05-07T07:21:28;8.30;;;6.70;;
11854;SDS011;5987;53.140;8.904;2023-05-07T07:24:32;7.43;;;5.77;;
11854;SDS011;5987;53.140;8.904;2023-05-07T07:27:36;8.53;;;5.60;;
11854;SDS011;5987;53.140;8.904;2023-05-07T07:30:41;7.83;;;5.97;;
11854;SDS011;5987;53.140;8.904;2023-05-07T07:33:47;8.03;;;5.60;;
11854;SDS011;5987;53.140;8.904;2023-05-07T07:36:53;6.80;;;5.60;;
11854;SDS011;5987;53.140;8.904;2023-05-07T07:39:57;6.43;;;5.77;;
11854;SDS011;5987;53.140;8.904;2023-05-07T07:43:01;7.07;;;5.50;;
11854;SDS011;5987;53.140;8.904;2023-05-07T07:46:04;6.93;;;5.37;;
11854;SDS011;5987;53.140;8.904;2023-05-07T07:49:09;9.50;;;5.23;;
11854;SDS011;5987;53.140;8.904;2023-05-07T07:52:13;8.43;;;6.13;;
11854;SDS011;5987;53.140;8.904;2023-05-07T07:55:19;5.87;;;5.27;;
11854;SDS011;5987;53.140;8.904;2023-05-07T07:58:24;5.63;;;5.03;;
11854;SDS011;5987;53.140;8.904;2023-05-07T08:01:28;7.33;;;5.07;;
11854;SDS011;5987;53.140;8.904;2023-05-07T08:04:34;5.17;;;4.67;;
11854;SDS011;5987;53.140;8.904;2023-05-07T08:07:39;6.57;;;5.33;;
11854;SDS011;5987;53.140;8.904;2023-05-07T08:10:42;5.70;;;5.07;;
11854;SDS011;5987;53.140;8.904;2023-05-07T08:13:46;6.00;;;5.33;;
11854;SDS011;5987;53.140;8.904;2023-05-07T08:16:51;5.37;;;4.53;;
11854;SDS011;5987;53.140;8.904;2023-05-07T08:19:56;8.17;;;5.93;;
11854;SDS011;5987;53.140;8.904;2023-05-07T08:23:00;7.53;;;5.87;;
11854;SDS011;5987;53.140;8.904;2023-05-07T08:26:04;6.43;;;5.80;;
11854;SDS011;5987;53.140;8.904;2023-05-07T08:29:07;7.27;;;5.83;;
11854;SDS011;5987;53.140;8.904;2023-05-07T08:32:11;6.23;;;5.50;;
11854;SDS011;5987;53.140;8.904;2023-05-07T08:35:16;5.80;;;5.20;;
11854;SDS011;5987;53.140;8.904;2023-05-07T08:38:19;7.07;;;6.00;;
11854;SDS011;5987;53.140;8.904;2023-05-07T08:41:23;6.30;;;5.13;;
11854;SDS011;5987;53.140;8.904;2023-05-07T08:44:26;5.97;;;5.27;;
11854;SDS011;5987;53.140;8.904;2023-05-07T08:47:38;6.63;;;5.37;;
11854;SDS011;5987;53.140;8.904;2023-05-07T08:50:48;6.90;;;6.20;;
11854;SDS011;5987;53.140;8.904;2023-05-07T08:53:52;5.63;;;5.10;;
11854;SDS011;5987;53.140;8.904;2023-05-07T08:56:56;6.53;;;5.20;;
11854;SDS011;5987;53.140;8.904;2023-05-07T08:59:59;6.83;;;6.10;;
11854;SDS011;5987;53.140;8.904;2023-05-07T09:03:03;9.20;;;7.00;;
11854;SDS011;5987;53.140;8.904;2023-05-07T09:06:08;6.77;;;6.00;;
11854;SDS011;5987;53.140;8.904;2023-05-07T09:09:14;6.47;;;5.63;;
11854;SDS011;5987;53.140;8.904;2023-05-07T09:12:20;10.27;;;8.37;;
11854;SDS011;5987;53.140;8.904;2023-05-07T09:15:24;7.17;;;5.80;;
11854;SDS011;5987;53.140;8.904;2023-05-07T09:18:28;7.43;;;6.40;;
11854;SDS011;5987;53.140;8.904;2023-05-07T09:21:33;7.30;;;5.90;;
11854;SDS011;5987;53.140;8.904;2023-05-07T09:24:37;7.60;;;5.80;;
11854;SDS011;5987;53.140;8.904;2023-05-07T09:27:42;7.63;;;5.50;;
11854;SDS011;5987;53.140;8.904;2023-05-07T09:30:45;6.70;;;5.60;;
11854;SDS011;5987;53.140;8.904;2023-05-07T09:33:49;6.53;;;5.90;;
11854;SDS011;5987;53.140;8.904;2023-05-07T09:36:56;6.77;;;5.87;;
11854;SDS011;5987;53.140;8.904;2023-05-07T09:40:03;7.57;;;6.53;;
11854;SDS011;5987;53.140;8.904;2023-05-07T09:43:09;9.00;;;7.17;;
11854;SDS011;5987;53.140;8.904;2023-05-07T09:46:14;9.57;;;6.40;;
11854;SDS011;5987;53.140;8.904;2023-05-07T09:49:20;8.30;;;6.27;;
11854;SDS011;5987;53.140;8.904;2023-05-07T09:52:27;7.40;;;6.23;;
11854;SDS011;5987;53.140;8.904;2023-05-07T09:55:34;7.30;;;5.97;;
11854;SDS011;5987;53.140;8.904;2023-05-07T09:58:40;8.43;;;6.20;;
11854;SDS011;5987;53.140;8.904;2023-05-07T10:01:46;7.67;;;6.00;;
11854;SDS011;5987;53.140;8.904;2023-05-07T10:04:50;7.23;;;5.97;;
11854;SDS011;5987;53.140;8.904;2023-05-07T10:07:56;9.93;;;6.97;;
11854;SDS011;5987;53.140;8.904;2023-05-07T10:11:02;6.67;;;5.37;;
11854;SDS011;5987;53.140;8.904;2023-05-07T10:14:07;8.90;;;7.40;;
11854;SDS011;5987;53.140;8.904;2023-05-07T10:17:12;9.40;;;7.13;;
11854;SDS011;5987;53.140;8.904;2023-05-07T10:20:19;7.90;;;6.10;;
11854;SDS011;5987;53.140;8.904;2023-05-07T10:23:24;9.90;;;6.97;;
11854;SDS011;5987;53.140;8.904;2023-05-07T10:26:30;8.17;;;6.07;;
11854;SDS011;5987;53.140;8.904;2023-05-07T10:29:37;8.60;;;6.43;;
11854;SDS011;5987;53.140;8.904;2023-05-07T10:32:53;7.67;;;6.10;;
11854;SDS011;5987;53.140;8.904;2023-05-07T10:36:07;7.30;;;6.37;;
11854;SDS011;5987;53.140;8.904;2023-05-07T10:39:12;8.97;;;6.97;;
11854;SDS011;5987;53.140;8.904;2023-05-07T10:42:16;7.97;;;6.33;;
11854;SDS011;5987;53.140;8.904;2023-05-07T10:45:28;8.03;;;6.47;;
11854;SDS011;5987;53.140;8.904;2023-05-07T10:48:32;7.70;;;6.40;;
11854;SDS011;5987;53.140;8.904;2023-05-07T10:51:36;8.07;;;5.77;;
11854;SDS011;5987;53.140;8.904;2023-05-07T10:54:41;6.83;;;6.13;;
11854;SDS011;5987;53.140;8.904;2023-05-07T10:57:45;6.80;;;5.67;;
11854;SDS011;5987;53.140;8.904;2023-05-07T11:00:49;7.03;;;5.90;;
11854;SDS011;5987;53.140;8.904;2023-05-07T11:04:14;8.37;;;5.17;;
11854;SDS011;5987;53.140;8.904;2023-05-07T11:07:26;7.07;;;5.67;;
11854;SDS011;5987;53.140;8.904;2023-05-07T11:10:51;10.50;;;6.17;;
11854;SDS011;5987;53.140;8.904;2023-05-07T11:13:56;7.73;;;6.40;;
11854;SDS011;5987;53.140;8.904;2023-05-07T11:17:01;11.30;;;6.10;;
11854;SDS011;5987;53.140;8.904;2023-05-07T11:20:07;14.93;;;11.70;;
11854;SDS011;5987;53.140;8.904;2023-05-07T11:27:05;7.93;;;6.53;;
11854;SDS011;5987;53.140;8.904;2023-05-07T11:30:09;8.23;;;5.93;;
11854;SDS011;5987;53.140;8.904;2023-05-07T11:33:20;7.70;;;5.50;;
11854;SDS011;5987;53.140;8.904;2023-05-07T11:36:31;8.07;;;5.83;;
11854;SDS011;5987;53.140;8.904;2023-05-07T11:39:36;8.23;;;6.47;;
11854;SDS011;5987;53.140;8.904;2023-05-07T11:42:41;8.57;;;5.67;;
11854;SDS011;5987;53.140;8.904;2023-05-07T11:45:45;7.13;;;5.70;;
11854;SDS011;5987;53.140;8.904;2023-05-07T11:48:49;8.37;;;5.77;;
11854;SDS011;5987;53.140;8.904;2023-05-07T11:51:53;5.50;;;5.00;;
11854;SDS011;5987;53.140;8.904;2023-05-07T11:54:57;9.57;;;7.10;;
11854;SDS011;5987;53.140;8.904;2023-05-07T11:58:03;5.73;;;5.23;;
11854;SDS011;5987;53.140;8.904;2023-05-07T12:01:10;6.17;;;5.50;;
11854;SDS011;5987;53.140;8.904;2023-05-07T12:04:18;5.80;;;5.30;;
11854;SDS011;5987;53.140;8.904;2023-05-07T12:07:23;5.73;;;4.70;;
11854;SDS011;5987;53.140;8.904;2023-05-07T12:10:27;7.53;;;5.57;;
11854;SDS011;5987;53.140;8.904;2023-05-07T12:13:32;8.43;;;5.13;;
11854;SDS011;5987;53.140;8.904;2023-05-07T12:16:36;6.40;;;5.47;;
11854;SDS011;5987;53.140;8.904;2023-05-07T12:19:41;6.57;;;5.70;;
11854;SDS011;5987;53.140;8.904;2023-05-07T12:22:47;7.23;;;5.10;;
11854;SDS011;5987;53.140;8.904;2023-05-07T12:25:54;5.27;;;4.77;;
11854;SDS011;5987;53.140;8.904;2023-05-07T12:28:59;5.90;;;4.70;;
11854;SDS011;5987;53.140;8.904;2023-05-07T12:32:02;6.00;;;4.10;;
11854;SDS011;5987;53.140;8.904;2023-05-07T12:35:08;5.30;;;4.80;;
11854;SDS011;5987;53.140;8.904;2023-05-07T12:38:12;6.23;;;5.13;;
11854;SDS011;5987;53.140;8.904;2023-05-07T12:41:18;5.77;;;5.00;;
11854;SDS011;5987;53.140;8.904;2023-05-07T12:44:30;5.70;;;4.77;;
11854;SDS011;5987;53.140;8.904;2023-05-07T12:47:35;6.03;;;4.73;;
11854;SDS011;5987;53.140;8.904;2023-05-07T12:50:39;4.90;;;4.37;;
11854;SDS011;5987;53.140;8.904;2023-05-07T12:53:42;6.27;;;4.70;;
11854;SDS011;5987;53.140;8.904;2023-05-07T12:56:46;4.90;;;4.40;;
11854;SDS011;5987;53.140;8.904;2023-05-07T12:59:51;4.47;;;4.00;;
11854;SDS011;5987;53.140;8.904;2023-05-07T13:03:01;4.60;;;4.03;;
11854;SDS011;5987;53.140;8.904;2023-05-07T13:06:06;5.17;;;4.07;;
11854;SDS011;5987;53.140;8.904;2023-05-07T13:09:13;4.77;;;4.30;;
11854;SDS011;5987;53.140;8.904;2023-05-07T13:12:17;3.93;;;3.37;;
11854;SDS011;5987;53.140;8.904;2023-05-07T13:15:22;4.50;;;4.03;;
11854;SDS011;5987;53.140;8.904;2023-05-07T13:18:25;4.67;;;4.20;;
11854;SDS011;5987;53.140;8.904;2023-05-07T13:21:29;5.53;;;3.90;;
11854;SDS011;5987;53.140;8.904;2023-05-07T13:24:33;4.53;;;4.13;;
11854;SDS011;5987;53.140;8.904;2023-05-07T13:27:37;4.00;;;3.20;;
11854;SDS011;5987;53.140;8.904;2023-05-07T13:30:41;4.87;;;3.37;;
11854;SDS011;5987;53.140;8.904;2023-05-07T13:33:45;6.60;;;4.27;;
11854;SDS011;5987;53.140;8.904;2023-05-07T13:36:49;6.13;;;4.77;;
11854;SDS011;5987;53.140;8.904;2023-05-07T13:39:52;4.30;;;3.87;;
11854;SDS011;5987;53.140;8.904;2023-05-07T13:42:56;3.80;;;3.43;;
11854;SDS011;5987;53.140;8.904;2023-05-07T13:46:03;5.20;;;3.97;;
11854;SDS011;5987;53.140;8.904;2023-05-07T13:49:07;3.57;;;3.27;;
11854;SDS011;5987;53.140;8.904;2023-05-07T13:52:12;3.40;;;3.10;;
11854;SDS011;5987;53.140;8.904;2023-05-07T13:55:16;4.20;;;3.80;;
11854;SDS011;5987;53.140;8.904;2023-05-07T13:58:20;3.87;;;3.33;;
11854;SDS011;5987;53.140;8.904;2023-05-07T14:01:25;4.53;;;4.13;;
11854;SDS011;5987;53.140;8.904;2023-05-07T14:04:30;4.33;;;3.80;;
11854;SDS011;5987;53.140;8.904;2023-05-07T14:07:33;4.80;;;3.93;;
11854;SDS011;5987;53.140;8.904;2023-05-07T14:10:37;5.80;;;4.80;;
11854;SDS011;5987;53.140;8.904;2023-05-07T14:13:41;7.10;;;4.73;;
11854;SDS011;5987;53.140;8.904;2023-05-07T14:16:45;5.83;;;4.70;;
11854;SDS011;5987;53.140;8.904;2023-05-07T14:19:51;4.60;;;4.20;;
11854;SDS011;5987;53.140;8.904;2023-05-07T14:22:56;4.57;;;3.97;;
11854;SDS011;5987;53.140;8.904;2023-05-07T14:25:59;4.30;;;3.90;;
11854;SDS011;5987;53.140;8.904;2023-05-07T14:29:03;6.83;;;4.73;;
11854;SDS011;5987;53.140;8.904;2023-05-07T14:32:08;6.13;;;4.50;;
11854;SDS011;5987;53.140;8.904;2023-05-07T14:35:11;4.80;;;4.27;;
11854;SDS011;5987;53.140;8.904;2023-05-07T14:38:15;5.20;;;4.70;;
11854;SDS011;5987;53.140;8.904;2023-05-07T14:41:19;5.77;;;4.30;;
11854;SDS011;5987;53.140;8.904;2023-05-07T14:44:23;6.03;;;4.20;;
11854;SDS011;5987;53.140;8.904;2023-05-07T14:47:28;4.37;;;3.97;;
11854;SDS011;5987;53.140;8.904;2023-05-07T14:50:32;4.80;;;3.83;;
11854;SDS011;5987;53.140;8.904;2023-05-07T14:53:36;4.40;;;4.00;;
11854;SDS011;5987;53.140;8.904;2023-05-07T14:56:39;4.50;;;4.10;;
11854;SDS011;5987;53.140;8.904;2023-05-07T14:59:44;4.37;;;3.97;;
11854;SDS011;5987;53.140;8.904;2023-05-07T15:02:49;3.90;;;3.60;;
11854;SDS011;5987;53.140;8.904;2023-05-07T15:05:53;4.10;;;3.70;;
11854;SDS011;5987;53.140;8.904;2023-05-07T15:08:57;4.10;;;3.70;;
11854;SDS011;5987;53.140;8.904;2023-05-07T15:12:01;4.20;;;3.80;;
11854;SDS011;5987;53.140;8.904;2023-05-07T15:15:05;4.07;;;3.67;;
11854;SDS011;5987;53.140;8.904;2023-05-07T15:18:14;5.47;;;3.53;;
11854;SDS011;5987;53.140;8.904;2023-05-07T15:21:18;5.57;;;4.10;;
11854;SDS011;5987;53.140;8.904;2023-05-07T15:24:22;6.33;;;4.20;;
11854;SDS011;5987;53.140;8.904;2023-05-07T15:27:26;3.73;;;3.43;;
11854;SDS011;5987;53.140;8.904;2023-05-07T15:30:29;4.97;;;3.83;;
11854;SDS011;5987;53.140;8.904;2023-05-07T15:33:34;5.57;;;4.20;;
11854;SDS011;5987;53.140;8.904;2023-05-07T15:36:38;3.50;;;3.20;;
11854;SDS011;5987;53.140;8.904;2023-05-07T15:39:41;5.17;;;3.80;;
11854;SDS011;5987;53.140;8.904;2023-05-07T15:42:45;4.60;;;4.10;;
11854;SDS011;5987;53.140;8.904;2023-05-07T15:45:49;6.47;;;4.20;;
11854;SDS011;5987;53.140;8.904;2023-05-07T15:48:54;4.17;;;3.77;;
11854;SDS011;5987;53.140;8.904;2023-05-07T15:51:58;6.03;;;4.07;;
11854;SDS011;5987;53.140;8.904;2023-05-07T15:55:02;5.20;;;4.53;;
11854;SDS011;5987;53.140;8.904;2023-05-07T15:58:08;4.67;;;4.27;;
11854;SDS011;5987;53.140;8.904;2023-05-07T16:01:11;5.83;;;3.93;;
11854;SDS011;5987;53.140;8.904;2023-05-07T16:04:17;4.53;;;4.03;;
11854;SDS011;5987;53.140;8.904;2023-05-07T16:07:20;5.70;;;4.63;;
11854;SDS011;5987;53.140;8.904;2023-05-07T16:10:24;4.30;;;3.90;;
11854;SDS011;5987;53.140;8.904;2023-05-07T16:13:28;5.03;;;4.53;;
11854;SDS011;5987;53.140;8.904;2023-05-07T16:16:32;4.73;;;4.23;;
11854;SDS011;5987;53.140;8.904;2023-05-07T16:19:38;4.83;;;4.17;;
11854;SDS011;5987;53.140;8.904;2023-05-07T16:22:41;4.53;;;4.13;;
11854;SDS011;5987;53.140;8.904;2023-05-07T16:25:45;7.13;;;6.43;;
11854;SDS011;5987;53.140;8.904;2023-05-07T16:28:48;7.97;;;6.70;;
11854;SDS011;5987;53.140;8.904;2023-05-07T16:31:53;6.17;;;5.57;;
11854;SDS011;5987;53.140;8.904;2023-05-07T16:34:58;5.50;;;4.80;;
11854;SDS011;5987;53.140;8.904;2023-05-07T16:38:02;5.43;;;4.77;;
11854;SDS011;5987;53.140;8.904;2023-05-07T16:41:10;6.13;;;4.40;;
11854;SDS011;5987;53.140;8.904;2023-05-07T16:44:14;4.70;;;3.83;;
11854;SDS011;5987;53.140;8.904;2023-05-07T16:47:18;6.17;;;5.03;;
11854;SDS011;5987;53.140;8.904;2023-05-07T16:50:23;4.83;;;4.23;;
11854;SDS011;5987;53.140;8.904;2023-05-07T16:53:27;7.17;;;4.43;;
11854;SDS011;5987;53.140;8.904;2023-05-07T16:56:30;4.93;;;4.10;;
11854;SDS011;5987;53.140;8.904;2023-05-07T16:59:34;5.63;;;4.80;;
11854;SDS011;5987;53.140;8.904;2023-05-07T17:02:37;5.80;;;5.20;;
11854;SDS011;5987;53.140;8.904;2023-05-07T17:05:42;6.93;;;5.97;;
11854;SDS011;5987;53.140;8.904;2023-05-07T17:08:46;4.40;;;4.00;;
11854;SDS011;5987;53.140;8.904;2023-05-07T17:11:51;3.80;;;3.37;;
11854;SDS011;5987;53.140;8.904;2023-05-07T17:14:55;3.70;;;3.40;;
11854;SDS011;5987;53.140;8.904;2023-05-07T17:17:58;4.87;;;3.60;;
11854;SDS011;5987;53.140;8.904;2023-05-07T17:21:03;4.80;;;3.60;;
11854;SDS011;5987;53.140;8.904;2023-05-07T17:24:07;4.30;;;3.90;;
11854;SDS011;5987;53.140;8.904;2023-05-07T17:27:11;5.37;;;4.30;;
11854;SDS011;5987;53.140;8.904;2023-05-07T17:30:14;7.33;;;3.60;;
11854;SDS011;5987;53.140;8.904;2023-05-07T17:33:18;7.00;;;5.97;;
11854;SDS011;5987;53.140;8.904;2023-05-07T17:36:24;4.43;;;3.60;;
11854;SDS011;5987;53.140;8.904;2023-05-07T17:39:27;4.23;;;3.80;;
11854;SDS011;5987;53.140;8.904;2023-05-07T17:42:31;5.43;;;3.43;;
11854;SDS011;5987;53.140;8.904;2023-05-07T17:45:34;4.90;;;3.57;;
11854;SDS011;5987;53.140;8.904;2023-05-07T17:48:38;4.93;;;3.57;;
11854;SDS011;5987;53.140;8.904;2023-05-07T17:51:43;6.57;;;3.93;;
11854;SDS011;5987;53.140;8.904;2023-05-07T17:54:55;4.10;;;3.40;;
11854;SDS011;5987;53.140;8.904;2023-05-07T17:57:59;4.27;;;3.87;;
11854;SDS011;5987;53.140;8.904;2023-05-07T18:01:03;8.03;;;3.80;;
11854;SDS011;5987;53.140;8.904;2023-05-07T18:04:07;5.60;;;3.70;;
11854;SDS011;5987;53.140;8.904;2023-05-07T18:07:12;3.53;;;3.23;;
11854;SDS011;5987;53.140;8.904;2023-05-07T18:10:16;3.97;;;3.40;;
11854;SDS011;5987;53.140;8.904;2023-05-07T18:13:20;5.03;;;3.70;;
11854;SDS011;5987;53.140;8.904;2023-05-07T18:16:23;4.77;;;3.30;;
11854;SDS011;5987;53.140;8.904;2023-05-07T18:19:28;5.17;;;3.53;;
11854;SDS011;5987;53.140;8.904;2023-05-07T18:22:33;3.90;;;3.40;;
11854;SDS011;5987;53.140;8.904;2023-05-07T18:25:36;5.97;;;3.50;;
11854;SDS011;5987;53.140;8.904;2023-05-07T18:28:40;3.27;;;2.90;;
11854;SDS011;5987;53.140;8.904;2023-05-07T18:31:44;3.57;;;3.13;;
11854;SDS011;5987;53.140;8.904;2023-05-07T18:34:47;3.90;;;3.13;;
11854;SDS011;5987;53.140;8.904;2023-05-07T18:37:53;3.57;;;3.27;;
11854;SDS011;5987;53.140;8.904;2023-05-07T18:40:59;4.10;;;3.70;;
11854;SDS011;5987;53.140;8.904;2023-05-07T18:44:04;3.80;;;3.50;;